createdAt,value
2023-05-06T02:08:35.093Z,3.00
2023-05-06T02:11:01.715Z,3.53
2023-05-06T02:13:28.407Z,3.95
2023-05-06T02:15:56.456Z,3.40
2023-05-06T02:18:23.260Z,3.47
2023-05-06T02:20:49.877Z,3.47
2023-05-06T02:23:16.591Z,3.72
2023-05-06T02:25:43.379Z,3.95
2023-05-06T02:28:10.024Z,4.28
2023-05-06T02:30:36.712Z,4.80
2023-05-06T02:33:04.828Z,4.80
2023-05-06T02:35:31.500Z,3.90
2023-05-06T02:37:58.627Z,4.15
2023-05-06T02:40:25.281Z,4.43
2023-05-06T02:42:52.006Z,4.63
2023-05-06T02:45:18.797Z,4.50
2023-05-06T02:47:45.486Z,4.15
2023-05-06T02:50:13.626Z,5.15
2023-05-06T02:52:40.232Z,4.70
2023-05-06T02:55:07.717Z,5.40
2023-05-06T02:57:34.529Z,4.20
2023-05-06T03:00:01.245Z,5.07
2023-05-06T03:02:27.939Z,4.85
2023-05-06T03:04:54.651Z,4.90
2023-05-06T03:07:22.728Z,5.38
2023-05-06T03:09:49.419Z,5.15
2023-05-06T03:12:16.152Z,5.05
2023-05-06T03:14:42.805Z,5.07
2023-05-06T03:17:09.538Z,5.43
2023-05-06T03:19:36.213Z,5.30
2023-05-06T03:22:02.948Z,4.32
2023-05-06T03:24:31.026Z,5.00
2023-05-06T03:26:57.670Z,4.97
2023-05-06T03:29:24.383Z,4.85
2023-05-06T03:31:51.133Z,5.10
2023-05-06T03:34:18.064Z,4.85
2023-05-06T03:36:45.681Z,5.30
2023-05-06T03:39:12.458Z,5.00
2023-05-06T03:41:40.525Z,4.97
2023-05-06T03:44:07.188Z,5.35
2023-05-06T03:46:33.925Z,4.55
2023-05-06T03:49:00.680Z,4.90
2023-05-06T03:51:27.391Z,4.60
2023-05-06T03:53:54.953Z,4.22
2023-05-06T03:56:21.852Z,4.38
2023-05-06T03:58:49.906Z,4.80
2023-05-06T04:01:16.600Z,5.07
2023-05-06T04:03:43.485Z,4.35
2023-05-06T04:06:10.279Z,4.82
2023-05-06T04:08:36.937Z,4.55
2023-05-06T04:11:07.274Z,4.53
2023-05-06T04:13:34.308Z,4.65
2023-05-06T04:16:02.517Z,4.03
2023-05-06T04:18:29.218Z,4.32
2023-05-06T04:20:55.931Z,4.32
2023-05-06T04:23:22.597Z,4.00
2023-05-06T04:25:49.246Z,4.72
2023-05-06T04:28:16.348Z,5.03
2023-05-06T04:30:43.418Z,4.30
2023-05-06T04:33:11.806Z,3.83
2023-05-06T04:35:38.833Z,4.38
2023-05-06T04:38:05.576Z,4.13
2023-05-06T04:40:32.293Z,4.20
2023-05-06T04:42:59.020Z,4.15
2023-05-06T04:45:26.245Z,3.88
2023-05-06T04:47:53.038Z,4.07
2023-05-06T04:50:21.138Z,4.72
2023-05-06T04:52:47.764Z,4.68
2023-05-06T04:55:14.700Z,4.88
2023-05-06T04:57:41.326Z,4.78
2023-05-06T05:00:09.144Z,4.78
2023-05-06T05:02:36.070Z,4.35
2023-05-06T05:05:02.823Z,4.60
2023-05-06T05:07:30.908Z,4.85
2023-05-06T05:09:57.627Z,5.53
2023-05-06T05:12:24.332Z,6.03
2023-05-06T05:14:50.987Z,6.32
2023-05-06T05:17:17.697Z,7.10
2023-05-06T05:19:44.437Z,5.05
2023-05-06T05:22:11.109Z,5.57
2023-05-06T05:24:39.153Z,5.82
2023-05-06T05:27:05.807Z,4.78
2023-05-06T05:29:32.420Z,5.70
2023-05-06T05:31:59.303Z,4.70
2023-05-06T05:34:25.994Z,5.28
2023-05-06T05:36:52.726Z,4.80
2023-05-06T05:39:19.392Z,4.47
2023-05-06T05:41:47.447Z,5.20
2023-05-06T05:44:14.094Z,4.60
2023-05-06T05:46:41.151Z,5.43
2023-05-06T05:49:07.884Z,5.78
2023-05-06T05:51:34.654Z,6.30
2023-05-06T05:54:01.477Z,5.45
2023-05-06T05:56:28.142Z,5.65
2023-05-06T05:58:56.340Z,6.38
2023-05-06T06:01:23.149Z,6.57
2023-05-06T06:03:50.114Z,6.25
2023-05-06T06:06:17.037Z,7.30
2023-05-06T06:08:43.945Z,7.55
2023-05-06T06:11:10.829Z,6.97
2023-05-06T06:13:37.503Z,8.20
2023-05-06T06:16:06.440Z,7.53
2023-05-06T06:18:33.119Z,8.10
2023-05-06T06:20:59.927Z,7.75
2023-05-06T06:23:26.650Z,7.80
2023-05-06T06:25:53.360Z,8.35
2023-05-06T06:28:20.144Z,8.07
2023-05-06T06:30:47.020Z,7.72
2023-05-06T06:33:15.045Z,8.07
2023-05-06T06:35:41.729Z,8.35
2023-05-06T06:38:08.372Z,8.25
2023-05-06T06:40:35.090Z,10.93
2023-05-06T06:43:01.753Z,9.48
2023-05-06T06:45:28.538Z,10.60
2023-05-06T06:47:55.322Z,10.80
2023-05-06T06:50:23.469Z,11.13
2023-05-06T06:52:50.108Z,10.73
2023-05-06T06:55:16.774Z,12.02
2023-05-06T06:57:43.442Z,11.27
2023-05-06T07:00:11.200Z,13.50
2023-05-06T07:02:38.112Z,12.35
2023-05-06T07:05:05.463Z,13.77
2023-05-06T07:07:33.524Z,11.07
2023-05-06T07:10:00.206Z,12.68
2023-05-06T07:12:26.885Z,12.43
2023-05-06T07:14:53.631Z,10.50
2023-05-06T07:17:20.351Z,11.75
2023-05-06T07:19:47.065Z,10.20
2023-05-06T07:22:13.764Z,10.45
2023-05-06T07:24:41.875Z,8.50
2023-05-06T07:27:08.631Z,8.30
2023-05-06T07:29:35.347Z,7.93
2023-05-06T07:32:02.105Z,7.90
2023-05-06T07:34:28.786Z,7.18
2023-05-06T07:36:55.501Z,7.60
2023-05-06T07:39:22.138Z,6.50
2023-05-06T07:41:50.158Z,6.80
2023-05-06T07:44:16.875Z,6.35
2023-05-06T07:46:43.582Z,6.28
2023-05-06T07:49:10.362Z,7.30
2023-05-06T07:51:36.989Z,7.15
2023-05-06T07:54:03.882Z,6.93
2023-05-06T07:56:30.574Z,6.20
2023-05-06T07:58:58.654Z,6.70
2023-05-06T08:01:25.438Z,6.32
2023-05-06T08:03:52.154Z,6.38
2023-05-06T08:06:18.960Z,5.88
2023-05-06T08:08:45.622Z,5.28
2023-05-06T08:11:12.317Z,5.15
2023-05-06T08:13:39.120Z,5.25
2023-05-06T08:16:07.861Z,6.00
2023-05-06T08:18:34.645Z,6.03
2023-05-06T08:21:01.359Z,5.80
2023-05-06T08:23:28.058Z,5.10
2023-05-06T08:25:54.839Z,5.05
2023-05-06T08:28:22.498Z,5.50
2023-05-06T08:30:50.716Z,5.15
2023-05-06T08:33:18.884Z,4.63
2023-05-06T08:35:46.609Z,4.90
2023-05-06T08:38:13.307Z,4.70
2023-05-06T08:40:42.535Z,5.20
2023-05-06T08:43:12.758Z,4.93
2023-05-06T08:45:39.832Z,4.97
2023-05-06T08:48:06.661Z,4.68
2023-05-06T08:50:37.204Z,4.55
2023-05-06T08:53:03.929Z,5.03
2023-05-06T08:55:31.083Z,4.35
2023-05-06T08:57:58.150Z,3.83
2023-05-06T09:00:25.089Z,4.97
2023-05-06T09:02:51.787Z,4.68
2023-05-06T09:05:18.682Z,4.80
2023-05-06T09:07:46.730Z,5.15
2023-05-06T09:10:14.110Z,4.10
2023-05-06T09:12:41.071Z,3.88
2023-05-06T09:15:09.748Z,3.58
2023-05-06T09:17:36.694Z,4.80
2023-05-06T09:20:04.051Z,4.85
2023-05-06T09:22:31.771Z,3.50
2023-05-06T09:25:00.010Z,4.28
2023-05-06T09:27:28.270Z,3.75
2023-05-06T09:30:02.213Z,4.13
2023-05-06T09:32:29.316Z,3.97
2023-05-06T09:34:56.278Z,4.10
2023-05-06T09:37:23.443Z,5.13
2023-05-06T09:39:50.544Z,5.78
2023-05-06T09:42:18.693Z,4.65
2023-05-06T09:44:46.082Z,4.80
2023-05-06T09:47:12.795Z,4.70
2023-05-06T09:49:39.572Z,4.47
2023-05-06T09:52:07.093Z,4.95
2023-05-06T09:54:34.279Z,4.22
2023-05-06T09:57:01.287Z,4.38
2023-05-06T09:59:30.281Z,4.45
2023-05-06T10:01:58.676Z,4.45
2023-05-06T10:04:26.805Z,4.30
2023-05-06T10:06:55.339Z,4.38
2023-05-06T10:09:24.133Z,4.20
2023-05-06T10:11:51.527Z,4.47
